sensor_id;sensor_type;location;lat;lon;timestamp;P1;durP1;ratioP1;P2;durP2;ratioP2
28481;SDS011;15703;49.588;6.260;2022-12-11T00:01:42;31.90;;;19.30;;
28481;SDS011;15703;49.588;6.260;2022-12-11T00:04:31;35.47;;;19.70;;
28481;SDS011;15703;49.588;6.260;2022-12-11T00:06:54;29.50;;;18.77;;
28481;SDS011;15703;49.588;6.260;2022-12-11T00:09:45;30.10;;;19.23;;
28481;SDS011;15703;49.588;6.260;2022-12-11T00:12:10;30.53;;;18.97;;
28481;SDS011;15703;49.588;6.260;2022-12-11T00:17:28;29.57;;;17.93;;
28481;SDS011;15703;49.588;6.260;2022-12-11T00:23:28;32.90;;;19.13;;
28481;SDS011;15703;49.588;6.260;2022-12-11T00:25:50;33.17;;;18.67;;
28481;SDS011;15703;49.588;6.260;2022-12-11T00:28:39;37.63;;;19.53;;
28481;SDS011;15703;49.588;6.260;2022-12-11T00:31:03;32.40;;;20.20;;
28481;SDS011;15703;49.588;6.260;2022-12-11T00:33:26;34.63;;;20.03;;
28481;SDS011;15703;49.588;6.260;2022-12-11T00:35:51;37.20;;;19.90;;
28481;SDS011;15703;49.588;6.260;2022-12-11T00:38:17;31.57;;;19.40;;
28481;SDS011;15703;49.588;6.260;2022-12-11T00:40:40;35.90;;;19.77;;
28481;SDS011;15703;49.588;6.260;2022-12-11T00:43:02;34.97;;;20.97;;
28481;SDS011;15703;49.588;6.260;2022-12-11T00:45:25;36.73;;;19.87;;
28481;SDS011;15703;49.588;6.260;2022-12-11T00:47:51;37.33;;;19.73;;
28481;SDS011;15703;49.588;6.260;2022-12-11T00:50:17;34.13;;;20.00;;
28481;SDS011;15703;49.588;6.260;2022-12-11T00:52:40;38.23;;;20.30;;
28481;SDS011;15703;49.588;6.260;2022-12-11T00:55:05;39.90;;;20.53;;
28481;SDS011;15703;49.588;6.260;2022-12-11T00:57:29;38.70;;;22.47;;
28481;SDS011;15703;49.588;6.260;2022-12-11T00:59:51;34.37;;;20.10;;
28481;SDS011;15703;49.588;6.260;2022-12-11T01:02:14;37.63;;;19.80;;
28481;SDS011;15703;49.588;6.260;2022-12-11T01:04:37;36.80;;;19.47;;
28481;SDS011;15703;49.588;6.260;2022-12-11T01:07:00;32.97;;;21.30;;
28481;SDS011;15703;49.588;6.260;2022-12-11T01:09:23;37.83;;;21.47;;
28481;SDS011;15703;49.588;6.260;2022-12-11T01:12:49;31.83;;;18.63;;
28481;SDS011;15703;49.588;6.260;2022-12-11T01:15:14;33.43;;;19.97;;
28481;SDS011;15703;49.588;6.260;2022-12-11T01:17:39;32.17;;;18.87;;
28481;SDS011;15703;49.588;6.260;2022-12-11T01:20:02;34.30;;;19.80;;
28481;SDS011;15703;49.588;6.260;2022-12-11T01:22:25;32.17;;;18.70;;
28481;SDS011;15703;49.588;6.260;2022-12-11T01:24:47;34.33;;;19.63;;
28481;SDS011;15703;49.588;6.260;2022-12-11T01:27:12;36.87;;;20.03;;
28481;SDS011;15703;49.588;6.260;2022-12-11T01:29:38;35.03;;;19.07;;
28481;SDS011;15703;49.588;6.260;2022-12-11T01:32:00;33.90;;;18.73;;
28481;SDS011;15703;49.588;6.260;2022-12-11T01:34:23;38.67;;;19.73;;
28481;SDS011;15703;49.588;6.260;2022-12-11T01:36:46;38.77;;;20.03;;
28481;SDS011;15703;49.588;6.260;2022-12-11T01:39:12;35.73;;;20.63;;
28481;SDS011;15703;49.588;6.260;2022-12-11T01:41:35;37.13;;;20.83;;
28481;SDS011;15703;49.588;6.260;2022-12-11T01:46:38;35.10;;;20.00;;
28481;SDS011;15703;49.588;6.260;2022-12-11T01:49:14;36.10;;;19.90;;
28481;SDS011;15703;49.588;6.260;2022-12-11T01:52:05;33.20;;;19.10;;
28481;SDS011;15703;49.588;6.260;2022-12-11T01:54:29;35.20;;;19.23;;
28481;SDS011;15703;49.588;6.260;2022-12-11T01:57:03;39.40;;;20.67;;
28481;SDS011;15703;49.588;6.260;2022-12-11T01:59:27;33.47;;;20.03;;
28481;SDS011;15703;49.588;6.260;2022-12-11T02:04:17;37.30;;;19.70;;
28481;SDS011;15703;49.588;6.260;2022-12-11T02:06:44;38.67;;;20.80;;
28481;SDS011;15703;49.588;6.260;2022-12-11T02:09:11;37.80;;;20.37;;
28481;SDS011;15703;49.588;6.260;2022-12-11T02:14:12;33.70;;;20.30;;
28481;SDS011;15703;49.588;6.260;2022-12-11T02:16:38;35.93;;;20.83;;
28481;SDS011;15703;49.588;6.260;2022-12-11T02:19:15;41.97;;;20.83;;
28481;SDS011;15703;49.588;6.260;2022-12-11T02:21:40;40.87;;;22.27;;
28481;SDS011;15703;49.588;6.260;2022-12-11T02:27:10;43.10;;;22.93;;
28481;SDS011;15703;49.588;6.260;2022-12-11T02:29:43;46.93;;;23.07;;
28481;SDS011;15703;49.588;6.260;2022-12-11T02:32:09;54.33;;;25.57;;
28481;SDS011;15703;49.588;6.260;2022-12-11T02:34:40;45.17;;;22.53;;
28481;SDS011;15703;49.588;6.260;2022-12-11T02:37:07;45.93;;;22.93;;
28481;SDS011;15703;49.588;6.260;2022-12-11T02:39:31;37.97;;;21.60;;
28481;SDS011;15703;49.588;6.260;2022-12-11T02:41:55;42.60;;;22.43;;
28481;SDS011;15703;49.588;6.260;2022-12-11T02:44:27;43.73;;;22.50;;
28481;SDS011;15703;49.588;6.260;2022-12-11T02:46:52;42.97;;;22.40;;
28481;SDS011;15703;49.588;6.260;2022-12-11T02:49:16;42.67;;;21.83;;
28481;SDS011;15703;49.588;6.260;2022-12-11T02:51:40;37.00;;;20.70;;
28481;SDS011;15703;49.588;6.260;2022-12-11T02:54:03;41.80;;;22.07;;
28481;SDS011;15703;49.588;6.260;2022-12-11T02:59:27;39.80;;;21.53;;
28481;SDS011;15703;49.588;6.260;2022-12-11T03:01:52;50.57;;;23.67;;
28481;SDS011;15703;49.588;6.260;2022-12-11T03:04:15;42.53;;;21.50;;
28481;SDS011;15703;49.588;6.260;2022-12-11T03:06:41;37.83;;;20.90;;
28481;SDS011;15703;49.588;6.260;2022-12-11T03:09:05;44.93;;;20.73;;
28481;SDS011;15703;49.588;6.260;2022-12-11T03:11:28;41.37;;;22.37;;
28481;SDS011;15703;49.588;6.260;2022-12-11T03:13:51;38.93;;;21.00;;
28481;SDS011;15703;49.588;6.260;2022-12-11T03:16:18;43.77;;;21.37;;
28481;SDS011;15703;49.588;6.260;2022-12-11T03:21:52;40.70;;;20.57;;
28481;SDS011;15703;49.588;6.260;2022-12-11T03:24:25;42.37;;;22.27;;
28481;SDS011;15703;49.588;6.260;2022-12-11T03:26:55;42.63;;;22.53;;
28481;SDS011;15703;49.588;6.260;2022-12-11T03:29:29;44.40;;;22.40;;
28481;SDS011;15703;49.588;6.260;2022-12-11T03:31:59;40.57;;;22.10;;
28481;SDS011;15703;49.588;6.260;2022-12-11T03:34:28;43.70;;;23.93;;
28481;SDS011;15703;49.588;6.260;2022-12-11T03:36:52;46.63;;;22.77;;
28481;SDS011;15703;49.588;6.260;2022-12-11T03:39:34;43.57;;;20.67;;
28481;SDS011;15703;49.588;6.260;2022-12-11T03:42:00;37.70;;;21.57;;
28481;SDS011;15703;49.588;6.260;2022-12-11T03:44:23;45.93;;;21.93;;
28481;SDS011;15703;49.588;6.260;2022-12-11T03:47:22;42.70;;;22.27;;
28481;SDS011;15703;49.588;6.260;2022-12-11T03:49:47;40.97;;;22.57;;
28481;SDS011;15703;49.588;6.260;2022-12-11T03:52:11;44.73;;;23.37;;
28481;SDS011;15703;49.588;6.260;2022-12-11T03:54:37;47.20;;;23.73;;
28481;SDS011;15703;49.588;6.260;2022-12-11T03:57:04;42.47;;;24.17;;
28481;SDS011;15703;49.588;6.260;2022-12-11T03:59:27;44.30;;;23.60;;
28481;SDS011;15703;49.588;6.260;2022-12-11T04:01:51;44.90;;;23.33;;
28481;SDS011;15703;49.588;6.260;2022-12-11T04:04:16;46.30;;;24.40;;
28481;SDS011;15703;49.588;6.260;2022-12-11T04:06:39;52.83;;;25.30;;
28481;SDS011;15703;49.588;6.260;2022-12-11T04:09:02;52.37;;;25.00;;
28481;SDS011;15703;49.588;6.260;2022-12-11T04:11:24;51.00;;;25.00;;
28481;SDS011;15703;49.588;6.260;2022-12-11T04:13:56;49.40;;;25.23;;
28481;SDS011;15703;49.588;6.260;2022-12-11T04:16:38;48.20;;;23.80;;
28481;SDS011;15703;49.588;6.260;2022-12-11T04:19:00;43.67;;;23.47;;
28481;SDS011;15703;49.588;6.260;2022-12-11T04:21:41;39.30;;;21.53;;
28481;SDS011;15703;49.588;6.260;2022-12-11T04:24:23;40.33;;;20.37;;
28481;SDS011;15703;49.588;6.260;2022-12-11T04:26:46;36.60;;;19.50;;
28481;SDS011;15703;49.588;6.260;2022-12-11T04:29:21;34.30;;;18.53;;
28481;SDS011;15703;49.588;6.260;2022-12-11T04:31:44;32.70;;;19.13;;
28481;SDS011;15703;49.588;6.260;2022-12-11T04:34:16;30.63;;;18.33;;
28481;SDS011;15703;49.588;6.260;2022-12-11T04:36:39;39.03;;;19.80;;
28481;SDS011;15703;49.588;6.260;2022-12-11T04:39:03;31.63;;;20.07;;
28481;SDS011;15703;49.588;6.260;2022-12-11T04:41:59;37.27;;;20.60;;
28481;SDS011;15703;49.588;6.260;2022-12-11T04:44:23;38.53;;;21.17;;
28481;SDS011;15703;49.588;6.260;2022-12-11T04:46:46;34.60;;;20.00;;
28481;SDS011;15703;49.588;6.260;2022-12-11T04:49:09;37.50;;;20.67;;
28481;SDS011;15703;49.588;6.260;2022-12-11T04:51:31;28.90;;;17.73;;
28481;SDS011;15703;49.588;6.260;2022-12-11T04:53:54;32.37;;;18.87;;
28481;SDS011;15703;49.588;6.260;2022-12-11T04:56:18;28.27;;;18.00;;
28481;SDS011;15703;49.588;6.260;2022-12-11T04:58:41;30.70;;;18.40;;
28481;SDS011;15703;49.588;6.260;2022-12-11T05:01:14;34.20;;;18.73;;
28481;SDS011;15703;49.588;6.260;2022-12-11T05:03:37;33.73;;;18.27;;
28481;SDS011;15703;49.588;6.260;2022-12-11T05:06:00;33.90;;;18.60;;
28481;SDS011;15703;49.588;6.260;2022-12-11T05:08:26;30.63;;;18.87;;
28481;SDS011;15703;49.588;6.260;2022-12-11T05:10:58;30.27;;;16.67;;
28481;SDS011;15703;49.588;6.260;2022-12-11T05:13:20;33.63;;;17.53;;
28481;SDS011;15703;49.588;6.260;2022-12-11T05:15:43;33.30;;;17.97;;
28481;SDS011;15703;49.588;6.260;2022-12-11T05:18:05;32.70;;;17.67;;
28481;SDS011;15703;49.588;6.260;2022-12-11T05:20:28;30.87;;;18.50;;
28481;SDS011;15703;49.588;6.260;2022-12-11T05:22:51;31.27;;;17.67;;
28481;SDS011;15703;49.588;6.260;2022-12-11T05:25:20;31.27;;;17.63;;
28481;SDS011;15703;49.588;6.260;2022-12-11T05:27:43;33.53;;;19.00;;
28481;SDS011;15703;49.588;6.260;2022-12-11T05:30:06;29.53;;;17.93;;
28481;SDS011;15703;49.588;6.260;2022-12-11T05:32:30;34.17;;;20.03;;
28481;SDS011;15703;49.588;6.260;2022-12-11T05:34:59;32.50;;;18.27;;
28481;SDS011;15703;49.588;6.260;2022-12-11T05:37:24;32.83;;;19.67;;
28481;SDS011;15703;49.588;6.260;2022-12-11T05:39:50;36.57;;;19.80;;
28481;SDS011;15703;49.588;6.260;2022-12-11T05:42:59;34.27;;;18.90;;
28481;SDS011;15703;49.588;6.260;2022-12-11T05:45:23;33.23;;;19.10;;
28481;SDS011;15703;49.588;6.260;2022-12-11T05:48:35;32.53;;;18.67;;
28481;SDS011;15703;49.588;6.260;2022-12-11T05:50:58;34.00;;;18.63;;
28481;SDS011;15703;49.588;6.260;2022-12-11T05:53:21;30.73;;;17.83;;
28481;SDS011;15703;49.588;6.260;2022-12-11T05:55:44;27.70;;;16.73;;
28481;SDS011;15703;49.588;6.260;2022-12-11T05:58:07;33.13;;;18.47;;
28481;SDS011;15703;49.588;6.260;2022-12-11T06:00:33;29.20;;;17.40;;
28481;SDS011;15703;49.588;6.260;2022-12-11T06:02:59;32.47;;;16.77;;
28481;SDS011;15703;49.588;6.260;2022-12-11T06:09:00;31.47;;;16.97;;
28481;SDS011;15703;49.588;6.260;2022-12-11T06:11:24;30.93;;;17.50;;
28481;SDS011;15703;49.588;6.260;2022-12-11T06:13:53;27.17;;;17.83;;
28481;SDS011;15703;49.588;6.260;2022-12-11T06:20:17;93.43;;;45.70;;
28481;SDS011;15703;49.588;6.260;2022-12-11T06:26:50;28.70;;;17.60;;
28481;SDS011;15703;49.588;6.260;2022-12-11T06:29:30;25.40;;;16.03;;
28481;SDS011;15703;49.588;6.260;2022-12-11T06:50:56;24.20;;;16.07;;
28481;SDS011;15703;49.588;6.260;2022-12-11T06:57:08;24.60;;;14.57;;
28481;SDS011;15703;49.588;6.260;2022-12-11T06:59:31;27.00;;;16.03;;
28481;SDS011;15703;49.588;6.260;2022-12-11T07:02:06;24.87;;;15.87;;
28481;SDS011;15703;49.588;6.260;2022-12-11T07:04:29;25.53;;;16.23;;
28481;SDS011;15703;49.588;6.260;2022-12-11T07:07:21;25.47;;;15.67;;
28481;SDS011;15703;49.588;6.260;2022-12-11T07:10:27;23.07;;;13.87;;
28481;SDS011;15703;49.588;6.260;2022-12-11T07:12:55;23.77;;;14.93;;
28481;SDS011;15703;49.588;6.260;2022-12-11T07:15:26;23.67;;;14.57;;
28481;SDS011;15703;49.588;6.260;2022-12-11T07:18:27;29.13;;;15.70;;
28481;SDS011;15703;49.588;6.260;2022-12-11T07:21:32;25.80;;;16.00;;
28481;SDS011;15703;49.588;6.260;2022-12-11T07:31:43;26.00;;;14.90;;
28481;SDS011;15703;49.588;6.260;2022-12-11T07:34:15;25.93;;;14.70;;
28481;SDS011;15703;49.588;6.260;2022-12-11T07:36:38;27.13;;;15.47;;
28481;SDS011;15703;49.588;6.260;2022-12-11T07:39:01;22.37;;;14.17;;
28481;SDS011;15703;49.588;6.260;2022-12-11T07:41:24;26.13;;;14.27;;
28481;SDS011;15703;49.588;6.260;2022-12-11T07:43:52;24.87;;;14.33;;
28481;SDS011;15703;49.588;6.260;2022-12-11T07:46:21;35.37;;;18.07;;
28481;SDS011;15703;49.588;6.260;2022-12-11T07:48:44;36.23;;;18.07;;
28481;SDS011;15703;49.588;6.260;2022-12-11T07:54:52;26.47;;;14.33;;
28481;SDS011;15703;49.588;6.260;2022-12-11T07:57:15;27.47;;;14.33;;
28481;SDS011;15703;49.588;6.260;2022-12-11T07:59:56;24.93;;;14.10;;
28481;SDS011;15703;49.588;6.260;2022-12-11T08:09:49;22.97;;;12.83;;
28481;SDS011;15703;49.588;6.260;2022-12-11T08:12:18;23.60;;;13.77;;
28481;SDS011;15703;49.588;6.260;2022-12-11T08:14:43;24.63;;;14.73;;
28481;SDS011;15703;49.588;6.260;2022-12-11T08:17:14;24.43;;;13.73;;
28481;SDS011;15703;49.588;6.260;2022-12-11T08:20:16;23.47;;;14.07;;
28481;SDS011;15703;49.588;6.260;2022-12-11T08:23:18;25.50;;;14.27;;
28481;SDS011;15703;49.588;6.260;2022-12-11T08:25:51;25.53;;;14.33;;
28481;SDS011;15703;49.588;6.260;2022-12-11T08:28:58;25.87;;;14.17;;
28481;SDS011;15703;49.588;6.260;2022-12-11T08:32:01;27.53;;;13.77;;
28481;SDS011;15703;49.588;6.260;2022-12-11T08:34:31;24.77;;;14.37;;
28481;SDS011;15703;49.588;6.260;2022-12-11T08:40:30;30.10;;;15.43;;
28481;SDS011;15703;49.588;6.260;2022-12-11T08:43:00;31.13;;;14.90;;
28481;SDS011;15703;49.588;6.260;2022-12-11T08:45:33;29.27;;;15.93;;
28481;SDS011;15703;49.588;6.260;2022-12-11T08:47:59;30.83;;;16.43;;
28481;SDS011;15703;49.588;6.260;2022-12-11T08:53:43;27.90;;;15.67;;
28481;SDS011;15703;49.588;6.260;2022-12-11T09:00:04;28.33;;;15.17;;
28481;SDS011;15703;49.588;6.260;2022-12-11T09:02:58;28.63;;;14.70;;
28481;SDS011;15703;49.588;6.260;2022-12-11T09:09:08;22.10;;;12.87;;
28481;SDS011;15703;49.588;6.260;2022-12-11T09:11:55;25.17;;;14.10;;
28481;SDS011;15703;49.588;6.260;2022-12-11T09:29:17;27.13;;;14.13;;
28481;SDS011;15703;49.588;6.260;2022-12-11T09:32:00;28.67;;;13.90;;
28481;SDS011;15703;49.588;6.260;2022-12-11T09:34:25;27.43;;;15.53;;
28481;SDS011;15703;49.588;6.260;2022-12-11T09:36:50;29.30;;;15.67;;
28481;SDS011;15703;49.588;6.260;2022-12-11T09:39:12;25.17;;;13.83;;
28481;SDS011;15703;49.588;6.260;2022-12-11T09:45:57;23.73;;;13.63;;
28481;SDS011;15703;49.588;6.260;2022-12-11T09:48:30;25.60;;;14.27;;
28481;SDS011;15703;49.588;6.260;2022-12-11T09:58:26;26.27;;;13.33;;
28481;SDS011;15703;49.588;6.260;2022-12-11T10:00:56;32.20;;;15.57;;
28481;SDS011;15703;49.588;6.260;2022-12-11T10:08:29;34.33;;;16.53;;
28481;SDS011;15703;49.588;6.260;2022-12-11T10:11:06;24.13;;;13.77;;
28481;SDS011;15703;49.588;6.260;2022-12-11T10:16:06;27.67;;;14.73;;
28481;SDS011;15703;49.588;6.260;2022-12-11T10:18:33;26.63;;;14.90;;
28481;SDS011;15703;49.588;6.260;2022-12-11T10:20:57;27.60;;;14.37;;
28481;SDS011;15703;49.588;6.260;2022-12-11T10:23:31;25.20;;;13.67;;
28481;SDS011;15703;49.588;6.260;2022-12-11T10:28:26;23.67;;;13.60;;
28481;SDS011;15703;49.588;6.260;2022-12-11T10:30:57;25.93;;;14.83;;
28481;SDS011;15703;49.588;6.260;2022-12-11T10:33:22;26.83;;;14.27;;
28481;SDS011;15703;49.588;6.260;2022-12-11T10:35:49;26.27;;;14.70;;
28481;SDS011;15703;49.588;6.260;2022-12-11T10:38:13;21.00;;;13.77;;
28481;SDS011;15703;49.588;6.260;2022-12-11T10:40:37;24.07;;;13.07;;
28481;SDS011;15703;49.588;6.260;2022-12-11T10:43:01;20.70;;;14.00;;
28481;SDS011;15703;49.588;6.260;2022-12-11T10:45:24;21.80;;;13.90;;
28481;SDS011;15703;49.588;6.260;2022-12-11T10:50:54;24.03;;;13.57;;
28481;SDS011;15703;49.588;6.260;2022-12-11T10:53:26;22.00;;;12.47;;
28481;SDS011;15703;49.588;6.260;2022-12-11T10:55:49;21.97;;;12.63;;
28481;SDS011;15703;49.588;6.260;2022-12-11T10:58:17;22.23;;;13.20;;
28481;SDS011;15703;49.588;6.260;2022-12-11T11:00:44;23.50;;;13.53;;
28481;SDS011;15703;49.588;6.260;2022-12-11T11:03:24;24.30;;;14.30;;
28481;SDS011;15703;49.588;6.260;2022-12-11T11:06:00;23.80;;;14.07;;
28481;SDS011;15703;49.588;6.260;2022-12-11T11:08:39;25.00;;;14.63;;
28481;SDS011;15703;49.588;6.260;2022-12-11T11:11:02;26.87;;;15.03;;
28481;SDS011;15703;49.588;6.260;2022-12-11T11:13:27;25.13;;;15.20;;
28481;SDS011;15703;49.588;6.260;2022-12-11T11:18:25;24.63;;;14.77;;
28481;SDS011;15703;49.588;6.260;2022-12-11T11:20:48;24.40;;;14.23;;
28481;SDS011;15703;49.588;6.260;2022-12-11T11:23:11;24.17;;;15.70;;
28481;SDS011;15703;49.588;6.260;2022-12-11T11:25:37;26.70;;;15.67;;
28481;SDS011;15703;49.588;6.260;2022-12-11T11:28:01;22.67;;;14.80;;
28481;SDS011;15703;49.588;6.260;2022-12-11T11:30:26;22.93;;;14.60;;
28481;SDS011;15703;49.588;6.260;2022-12-11T11:32:51;23.03;;;14.60;;
28481;SDS011;15703;49.588;6.260;2022-12-11T11:35:20;24.20;;;14.83;;
28481;SDS011;15703;49.588;6.260;2022-12-11T11:37:45;23.87;;;14.20;;
28481;SDS011;15703;49.588;6.260;2022-12-11T11:40:21;24.37;;;14.00;;
28481;SDS011;15703;49.588;6.260;2022-12-11T11:42:48;28.00;;;14.43;;
28481;SDS011;15703;49.588;6.260;2022-12-11T11:45:13;29.00;;;15.67;;
28481;SDS011;15703;49.588;6.260;2022-12-11T11:47:39;24.37;;;14.37;;
28481;SDS011;15703;49.588;6.260;2022-12-11T11:50:05;23.60;;;15.33;;
28481;SDS011;15703;49.588;6.260;2022-12-11T11:54:54;25.03;;;14.87;;
28481;SDS011;15703;49.588;6.260;2022-12-11T12:02:34;25.60;;;16.17;;
28481;SDS011;15703;49.588;6.260;2022-12-11T12:04:56;24.50;;;15.20;;
28481;SDS011;15703;49.588;6.260;2022-12-11T12:12:13;23.50;;;13.90;;
28481;SDS011;15703;49.588;6.260;2022-12-11T12:24:39;23.60;;;15.10;;
28481;SDS011;15703;49.588;6.260;2022-12-11T12:30:17;21.40;;;13.27;;
28481;SDS011;15703;49.588;6.260;2022-12-11T12:40:31;24.07;;;13.63;;
28481;SDS011;15703;49.588;6.260;2022-12-11T12:43:03;22.67;;;13.97;;
28481;SDS011;15703;49.588;6.260;2022-12-11T12:45:38;23.60;;;14.87;;
28481;SDS011;15703;49.588;6.260;2022-12-11T12:48:05;22.23;;;13.50;;
28481;SDS011;15703;49.588;6.260;2022-12-11T12:50:33;25.10;;;13.93;;
28481;SDS011;15703;49.588;6.260;2022-12-11T12:53:13;24.37;;;13.77;;
28481;SDS011;15703;49.588;6.260;2022-12-11T12:55:38;26.23;;;13.90;;
28481;SDS011;15703;49.588;6.260;2022-12-11T12:58:02;23.17;;;13.60;;
28481;SDS011;15703;49.588;6.260;2022-12-11T13:00:27;24.37;;;14.50;;
28481;SDS011;15703;49.588;6.260;2022-12-11T13:02:50;21.67;;;13.47;;
28481;SDS011;15703;49.588;6.260;2022-12-11T13:05:32;22.47;;;14.20;;
28481;SDS011;15703;49.588;6.260;2022-12-11T13:07:59;21.10;;;12.83;;
28481;SDS011;15703;49.588;6.260;2022-12-11T13:10:33;23.13;;;13.33;;
28481;SDS011;15703;49.588;6.260;2022-12-11T13:12:56;23.13;;;13.90;;
28481;SDS011;15703;49.588;6.260;2022-12-11T13:15:33;25.40;;;13.20;;
28481;SDS011;15703;49.588;6.260;2022-12-11T13:17:56;21.40;;;13.67;;
28481;SDS011;15703;49.588;6.260;2022-12-11T13:20:20;22.90;;;14.20;;
28481;SDS011;15703;49.588;6.260;2022-12-11T13:22:47;27.63;;;16.17;;
28481;SDS011;15703;49.588;6.260;2022-12-11T13:25:18;19.90;;;12.87;;
28481;SDS011;15703;49.588;6.260;2022-12-11T13:27:42;20.97;;;12.77;;
28481;SDS011;15703;49.588;6.260;2022-12-11T13:30:06;21.60;;;13.30;;
28481;SDS011;15703;49.588;6.260;2022-12-11T13:32:28;24.27;;;13.30;;
28481;SDS011;15703;49.588;6.260;2022-12-11T13:34:52;22.23;;;13.93;;
28481;SDS011;15703;49.588;6.260;2022-12-11T13:37:32;22.23;;;13.77;;
28481;SDS011;15703;49.588;6.260;2022-12-11T13:39:55;20.13;;;13.50;;
28481;SDS011;15703;49.588;6.260;2022-12-11T13:42:23;20.97;;;13.63;;
28481;SDS011;15703;49.588;6.260;2022-12-11T13:44:48;21.70;;;13.40;;
28481;SDS011;15703;49.588;6.260;2022-12-11T13:47:13;22.50;;;13.10;;
28481;SDS011;15703;49.588;6.260;2022-12-11T13:49:36;21.43;;;14.03;;
28481;SDS011;15703;49.588;6.260;2022-12-11T13:52:00;20.87;;;13.47;;
28481;SDS011;15703;49.588;6.260;2022-12-11T13:54:25;21.83;;;14.33;;
28481;SDS011;15703;49.588;6.260;2022-12-11T13:59:24;25.20;;;14.90;;
28481;SDS011;15703;49.588;6.260;2022-12-11T14:01:48;22.93;;;14.53;;
28481;SDS011;15703;49.588;6.260;2022-12-11T14:04:11;24.13;;;15.87;;
28481;SDS011;15703;49.588;6.260;2022-12-11T14:06:37;21.43;;;14.47;;
28481;SDS011;15703;49.588;6.260;2022-12-11T14:09:00;25.60;;;13.63;;
28481;SDS011;15703;49.588;6.260;2022-12-11T14:11:24;21.90;;;14.03;;
28481;SDS011;15703;49.588;6.260;2022-12-11T14:13:50;25.77;;;15.33;;
28481;SDS011;15703;49.588;6.260;2022-12-11T14:16:18;28.33;;;15.93;;
28481;SDS011;15703;49.588;6.260;2022-12-11T14:18:42;23.47;;;14.00;;
28481;SDS011;15703;49.588;6.260;2022-12-11T14:21:04;24.07;;;14.37;;
28481;SDS011;15703;49.588;6.260;2022-12-11T14:23:30;28.00;;;15.63;;
28481;SDS011;15703;49.588;6.260;2022-12-11T14:25:54;23.17;;;15.50;;
28481;SDS011;15703;49.588;6.260;2022-12-11T14:28:16;26.43;;;15.73;;
28481;SDS011;15703;49.588;6.260;2022-12-11T14:31:19;22.17;;;13.83;;
28481;SDS011;15703;49.588;6.260;2022-12-11T14:33:51;21.40;;;13.20;;
28481;SDS011;15703;49.588;6.260;2022-12-11T14:36:16;25.77;;;15.07;;
28481;SDS011;15703;49.588;6.260;2022-12-11T14:38:43;21.20;;;13.77;;
28481;SDS011;15703;49.588;6.260;2022-12-11T14:41:12;22.30;;;14.03;;
28481;SDS011;15703;49.588;6.260;2022-12-11T14:43:41;19.87;;;13.70;;
28481;SDS011;15703;49.588;6.260;2022-12-11T14:46:06;23.43;;;14.60;;
28481;SDS011;15703;49.588;6.260;2022-12-11T14:48:33;23.97;;;14.37;;
28481;SDS011;15703;49.588;6.260;2022-12-11T14:50:57;22.57;;;12.83;;
28481;SDS011;15703;49.588;6.260;2022-12-11T14:53:21;19.00;;;12.97;;
28481;SDS011;15703;49.588;6.260;2022-12-11T14:55:44;24.17;;;13.30;;
28481;SDS011;15703;49.588;6.260;2022-12-11T14:58:14;21.87;;;13.57;;
28481;SDS011;15703;49.588;6.260;2022-12-11T15:00:42;21.23;;;14.57;;
28481;SDS011;15703;49.588;6.260;2022-12-11T15:03:05;21.77;;;14.50;;
28481;SDS011;15703;49.588;6.260;2022-12-11T15:05:28;22.63;;;14.13;;
28481;SDS011;15703;49.588;6.260;2022-12-11T15:10:36;24.53;;;14.43;;
28481;SDS011;15703;49.588;6.260;2022-12-11T15:13:21;19.23;;;13.30;;
28481;SDS011;15703;49.588;6.260;2022-12-11T15:15:44;23.53;;;13.87;;
28481;SDS011;15703;49.588;6.260;2022-12-11T15:18:11;28.07;;;17.40;;
28481;SDS011;15703;49.588;6.260;2022-12-11T15:20:37;27.60;;;18.70;;
28481;SDS011;15703;49.588;6.260;2022-12-11T15:23:00;46.23;;;32.43;;
28481;SDS011;15703;49.588;6.260;2022-12-11T15:25:23;20.73;;;13.57;;
28481;SDS011;15703;49.588;6.260;2022-12-11T15:27:54;21.47;;;12.67;;
28481;SDS011;15703;49.588;6.260;2022-12-11T15:33:02;22.10;;;14.57;;
28481;SDS011;15703;49.588;6.260;2022-12-11T15:35:25;23.17;;;13.90;;
28481;SDS011;15703;49.588;6.260;2022-12-11T15:37:52;23.70;;;14.23;;
28481;SDS011;15703;49.588;6.260;2022-12-11T15:40:15;20.90;;;13.60;;
28481;SDS011;15703;49.588;6.260;2022-12-11T15:42:39;22.77;;;13.97;;
28481;SDS011;15703;49.588;6.260;2022-12-11T15:45:06;23.80;;;13.40;;
28481;SDS011;15703;49.588;6.260;2022-12-11T15:47:29;20.30;;;13.00;;
28481;SDS011;15703;49.588;6.260;2022-12-11T15:52:58;23.37;;;14.67;;
28481;SDS011;15703;49.588;6.260;2022-12-11T15:55:24;20.77;;;12.97;;
28481;SDS011;15703;49.588;6.260;2022-12-11T15:57:52;24.17;;;13.73;;
28481;SDS011;15703;49.588;6.260;2022-12-11T16:03:47;22.07;;;14.47;;
28481;SDS011;15703;49.588;6.260;2022-12-11T16:06:11;22.53;;;13.70;;
28481;SDS011;15703;49.588;6.260;2022-12-11T16:08:34;17.73;;;12.77;;
28481;SDS011;15703;49.588;6.260;2022-12-11T16:10:56;22.00;;;14.37;;
28481;SDS011;15703;49.588;6.260;2022-12-11T16:13:20;20.63;;;12.80;;
28481;SDS011;15703;49.588;6.260;2022-12-11T16:15:44;19.73;;;13.23;;
28481;SDS011;15703;49.588;6.260;2022-12-11T16:18:10;19.03;;;13.37;;
28481;SDS011;15703;49.588;6.260;2022-12-11T16:20:34;23.13;;;15.30;;
28481;SDS011;15703;49.588;6.260;2022-12-11T16:23:11;22.20;;;13.90;;
28481;SDS011;15703;49.588;6.260;2022-12-11T16:25:41;21.17;;;13.87;;
28481;SDS011;15703;49.588;6.260;2022-12-11T16:28:04;21.27;;;14.33;;
28481;SDS011;15703;49.588;6.260;2022-12-11T16:30:37;24.97;;;15.80;;
28481;SDS011;15703;49.588;6.260;2022-12-11T16:32:59;20.03;;;13.17;;
28481;SDS011;15703;49.588;6.260;2022-12-11T16:35:27;21.73;;;13.73;;
28481;SDS011;15703;49.588;6.260;2022-12-11T16:37:51;20.87;;;14.00;;
28481;SDS011;15703;49.588;6.260;2022-12-11T16:40:14;24.43;;;16.30;;
28481;SDS011;15703;49.588;6.260;2022-12-11T16:42:37;24.83;;;14.97;;
28481;SDS011;15703;49.588;6.260;2022-12-11T16:45:07;23.03;;;13.63;;
28481;SDS011;15703;49.588;6.260;2022-12-11T16:47:30;23.87;;;14.80;;
28481;SDS011;15703;49.588;6.260;2022-12-11T16:49:53;18.77;;;13.63;;
28481;SDS011;15703;49.588;6.260;2022-12-11T16:52:15;18.20;;;12.70;;
28481;SDS011;15703;49.588;6.260;2022-12-11T16:54:42;21.87;;;13.30;;
28481;SDS011;15703;49.588;6.260;2022-12-11T16:57:04;20.77;;;13.93;;
28481;SDS011;15703;49.588;6.260;2022-12-11T16:59:27;25.57;;;14.27;;
28481;SDS011;15703;49.588;6.260;2022-12-11T17:01:57;26.10;;;15.10;;
28481;SDS011;15703;49.588;6.260;2022-12-11T17:04:22;33.60;;;15.07;;
28481;SDS011;15703;49.588;6.260;2022-12-11T17:06:44;32.00;;;17.13;;
28481;SDS011;15703;49.588;6.260;2022-12-11T17:09:07;25.63;;;16.73;;
28481;SDS011;15703;49.588;6.260;2022-12-11T17:11:29;23.27;;;14.77;;
28481;SDS011;15703;49.588;6.260;2022-12-11T17:13:53;25.50;;;15.30;;
28481;SDS011;15703;49.588;6.260;2022-12-11T17:16:15;23.33;;;14.93;;
28481;SDS011;15703;49.588;6.260;2022-12-11T17:18:38;27.67;;;16.30;;
28481;SDS011;15703;49.588;6.260;2022-12-11T17:21:09;27.97;;;16.13;;
28481;SDS011;15703;49.588;6.260;2022-12-11T17:23:33;27.60;;;15.73;;
28481;SDS011;15703;49.588;6.260;2022-12-11T17:25:57;28.83;;;16.43;;
28481;SDS011;15703;49.588;6.260;2022-12-11T17:28:19;25.43;;;16.37;;